Time;durP1;ratioP1;P1;durP2;ratioP2;P2;SDS_P1;SDS_P2;PMS_P1;PMS_P2;Temp;Humidity;BMP_temperature;BMP_pressure;BME280_temperature;BME280_humidity;BME280_pressure;Samples;Min_cycle;Max_cycle;Signal;HPM_P1;HPM_P2
2023/10/29 00:01:10;;;;;;;9.85;5.65;;;;;;;17.06;100.00;101361.72;5013368;28;20042;-70
2023/10/29 00:03:35;;;;;;;14.73;5.55;;;;;;;16.83;100.00;101361.63;5010427;28;20030;-69
2023/10/29 00:06:01;;;;;;;12.73;5.63;;;;;;;17.06;100.00;101425.97;5018428;28;20505;-69
2023/10/29 00:08:27;;;;;;;13.90;5.85;;;;;;;16.94;100.00;101470.03;5009426;28;20033;-69
2023/10/29 00:10:52;;;;;;;8.38;4.95;;;;;;;16.81;100.00;101465.31;5017523;28;20096;-69
2023/10/29 00:13:18;;;;;;;11.55;4.85;;;;;;;16.91;100.00;101475.28;5006707;28;20060;-70
2023/10/29 00:15:43;;;;;;;9.07;4.85;;;;;;;17.02;100.00;101524.63;5008769;28;20120;-70
2023/10/29 00:18:12;;;;;;;11.45;4.10;;;;;;;16.88;100.00;101493.34;5007968;28;20038;-70
2023/10/29 00:20:38;;;;;;;9.40;4.00;;;;;;;16.73;100.00;101406.47;5007120;28;20133;-69
2023/10/29 00:23:03;;;;;;;7.85;3.03;;;;;;;16.96;100.00;101419.44;5008249;28;20129;-70
2023/10/29 00:25:28;;;;;;;8.50;3.65;;;;;;;17.51;100.00;101476.88;5007994;28;20034;-69
2023/10/29 00:27:54;;;;;;;8.65;3.35;;;;;;;17.09;100.00;101431.00;5006505;28;20030;-71
2023/10/29 00:30:19;;;;;;;7.93;2.60;;;;;;;17.54;100.00;101403.00;5008081;28;20096;-69
2023/10/29 00:32:45;;;;;;;7.40;2.15;;;;;;;17.57;100.00;101348.88;5007822;28;20033;-69
2023/10/29 00:35:10;;;;;;;5.50;2.30;;;;;;;17.62;100.00;101303.28;5007312;28;20041;-71
2023/10/29 00:37:36;;;;;;;6.63;1.90;;;;;;;17.63;100.00;101275.81;5005919;28;20080;-72
2023/10/29 00:40:02;;;;;;;7.85;2.13;;;;;;;17.52;100.00;101239.34;5007914;28;20405;-70
2023/10/29 00:42:28;;;;;;;5.00;2.08;;;;;;;17.40;100.00;101199.44;5005807;28;20099;-70
2023/10/29 00:44:53;;;;;;;7.05;1.90;;;;;;;17.40;100.00;101203.75;5008245;28;20034;-69
2023/10/29 00:47:19;;;;;;;7.15;2.20;;;;;;;16.84;100.00;101160.34;5005804;28;20041;-70
2023/10/29 00:49:45;;;;;;;7.85;3.00;;;;;;;16.85;100.00;101235.69;5006137;28;20029;-71
2023/10/29 00:52:10;;;;;;;9.50;3.20;;;;;;;16.91;100.00;101262.03;5003536;28;20064;-70
2023/10/29 00:54:36;;;;;;;9.23;2.88;;;;;;;16.83;100.00;101307.69;5007377;28;20464;-70
2023/10/29 00:57:02;;;;;;;7.82;3.17;;;;;;;16.87;100.00;101352.09;5007604;28;20492;-70
2023/10/29 00:59:30;;;;;;;10.57;3.35;;;;;;;16.91;100.00;101400.75;5007217;28;20432;-70
2023/10/29 01:01:56;;;;;;;9.02;3.35;;;;;;;16.75;100.00;101414.13;5006001;28;20034;-70
2023/10/29 01:04:22;;;;;;;6.95;3.05;;;;;;;16.45;100.00;101424.38;5007718;28;20125;-70
2023/10/29 01:06:48;;;;;;;6.55;3.25;;;;;;;16.42;100.00;101486.06;5007693;28;20030;-70
2023/10/29 01:09:14;;;;;;;9.90;3.70;;;;;;;16.43;100.00;101521.16;5007211;28;20454;-70
2023/10/29 01:11:40;;;;;;;6.53;3.00;;;;;;;16.50;100.00;101564.66;5007208;28;20037;-71
2023/10/29 01:14:05;;;;;;;10.38;3.40;;;;;;;15.81;100.00;101528.75;5017747;28;20414;-70
2023/10/29 01:16:31;;;;;;;6.65;3.72;;;;;;;16.12;100.00;101627.22;5014113;28;20029;-70
2023/10/29 01:18:58;;;;;;;9.02;4.00;;;;;;;16.30;100.00;101670.41;5009641;28;20033;-70
2023/10/29 01:21:25;;;;;;;7.43;3.65;;;;;;;15.96;100.00;101675.47;5016386;28;20084;-72
2023/10/29 01:23:51;;;;;;;7.93;3.90;;;;;;;16.01;100.00;101713.84;5012175;28;20037;-70
2023/10/29 01:26:17;;;;;;;6.72;3.33;;;;;;;16.13;100.00;101770.88;5013544;28;20454;-70
2023/10/29 01:28:43;;;;;;;7.40;3.80;;;;;;;16.06;100.00;101786.44;5007535;28;20037;-71
2023/10/29 01:31:09;;;;;;;9.70;3.80;;;;;;;16.05;100.00;101815.53;5014915;28;20500;-71
2023/10/29 01:33:35;;;;;;;12.30;4.43;;;;;;;15.99;100.00;101847.31;5014783;28;20037;-71
2023/10/29 01:36:01;;;;;;;9.27;4.55;;;;;;;16.06;100.00;101933.56;5018079;28;20030;-71
2023/10/29 01:38:26;;;;;;;12.77;4.55;;;;;;;15.51;100.00;101902.94;5020534;28;20041;-71
2023/10/29 01:40:51;;;;;;;12.10;5.25;;;;;;;15.82;100.00;102016.13;5008724;28;20061;-71
2023/10/29 01:43:17;;;;;;;9.27;4.65;;;;;;;15.09;100.00;101982.19;5015021;28;20487;-71
2023/10/29 01:45:43;;;;;;;11.32;5.53;;;;;;;15.66;100.00;102122.38;5014035;28;20036;-70
2023/10/29 01:48:08;;;;;;;10.75;4.90;;;;;;;15.34;100.00;102161.25;5008663;28;20444;-70
2023/10/29 01:50:36;;;;;;;11.85;4.88;;;;;;;15.19;100.00;102345.09;5019984;28;20037;-69
2023/10/29 01:53:01;;;;;;;14.15;5.50;;;;;;;15.31;100.00;102517.56;5008007;28;20033;-70
2023/10/29 01:55:27;;;;;;;12.00;6.13;;;;;;;15.43;100.00;102658.56;5017896;28;20030;-70
2023/10/29 01:57:52;;;;;;;15.43;6.22;;;;;;;15.18;100.00;102879.06;5016892;28;20034;-70
2023/10/29 02:00:19;;;;;;;12.50;5.95;;;;;;;15.18;100.00;102963.66;5019248;28;20033;-70
2023/10/29 02:02:46;;;;;;;12.55;5.40;;;;;;;15.14;100.00;103049.94;5025957;28;20033;-70
2023/10/29 02:05:12;;;;;;;13.07;6.00;;;;;;;15.12;100.00;103102.91;5021322;28;20492;-69
2023/10/29 02:07:37;;;;;;;14.98;6.68;;;;;;;15.29;100.00;103175.59;5023040;28;20079;-70
2023/10/29 02:10:03;;;;;;;17.38;6.63;;;;;;;15.09;100.00;103209.69;5017385;28;20040;-70
2023/10/29 02:12:28;;;;;;;13.98;6.40;;;;;;;15.65;100.00;103328.84;5019035;28;20021;-69
2023/10/29 02:14:54;;;;;;;11.43;6.30;;;;;;;15.40;100.00;103299.63;5018722;28;20148;-71
2023/10/29 02:17:21;;;;;;;16.55;6.65;;;;;;;15.13;100.00;103311.41;5021019;28;20407;-71
2023/10/29 02:19:49;;;;;;;13.68;6.10;;;;;;;15.59;100.00;103432.28;5009771;28;20030;-70
2023/10/29 02:22:14;;;;;;;14.55;6.13;;;;;;;15.33;100.00;103423.50;5012678;28;20148;-70
2023/10/29 02:24:39;;;;;;;11.63;5.53;;;;;;;15.57;100.00;103469.03;5018560;28;20480;-71
2023/10/29 02:27:05;;;;;;;10.80;6.13;;;;;;;15.32;100.00;103472.22;5009266;28;20044;-71
2023/10/29 02:29:30;;;;;;;10.52;6.15;;;;;;;15.50;100.00;103546.78;5026132;28;20025;-70
2023/10/29 02:31:56;;;;;;;14.05;6.38;;;;;;;15.70;100.00;103575.19;5019716;28;20026;-71
2023/10/29 02:34:21;;;;;;;10.80;5.30;;;;;;;15.68;100.00;103576.88;5010216;28;20030;-71
2023/10/29 02:36:46;;;;;;;12.05;4.78;;;;;;;15.64;100.00;103578.56;5019611;28;20079;-70
2023/10/29 02:39:13;;;;;;;12.73;5.10;;;;;;;15.46;100.00;103545.91;5019505;28;20045;-71
2023/10/29 02:41:38;;;;;;;10.73;4.70;;;;;;;15.05;100.00;103457.44;5018678;28;20026;-71
2023/10/29 02:44:04;;;;;;;10.43;4.75;;;;;;;15.40;100.00;103491.09;5009142;28;20084;-71
2023/10/29 02:46:30;;;;;;;11.70;4.30;;;;;;;15.55;100.00;103499.81;5017773;28;20037;-70
2023/10/29 02:48:56;;;;;;;8.50;4.57;;;;;;;15.43;100.00;103448.41;5018267;28;20029;-70
2023/10/29 02:51:21;;;;;;;8.63;4.45;;;;;;;15.46;100.00;103421.94;5022368;28;20040;-70
2023/10/29 02:53:47;;;;;;;8.18;4.10;;;;;;;15.71;100.00;103400.72;5012995;28;20033;-70
2023/10/29 02:56:12;;;;;;;7.85;3.97;;;;;;;15.74;100.00;103371.66;5008358;28;20072;-71
2023/10/29 02:58:38;;;;;;;9.20;4.20;;;;;;;15.38;100.00;103267.09;5017197;28;20029;-71
2023/10/29 03:01:07;;;;;;;10.30;4.38;;;;;;;15.66;100.00;103251.03;5016031;28;20030;-71
2023/10/29 03:03:36;;;;;;;8.13;4.18;;;;;;;15.51;100.00;103181.69;5013036;28;20104;-70
2023/10/29 03:06:06;;;;;;;7.53;4.25;;;;;;;15.44;100.00;103062.88;5010107;28;20045;-70
2023/10/29 03:08:32;;;;;;;10.35;4.30;;;;;;;15.60;100.00;103067.19;5014188;28;20046;-73
2023/10/29 03:10:58;;;;;;;11.75;4.35;;;;;;;15.39;100.00;103013.25;5021822;28;20044;-71
2023/10/29 03:13:24;;;;;;;7.28;4.15;;;;;;;15.56;100.00;103019.28;5016910;28;20045;-70
2023/10/29 03:15:49;;;;;;;10.93;4.53;;;;;;;15.33;100.00;103002.13;5010442;28;20025;-70
2023/10/29 03:18:15;;;;;;;11.20;4.63;;;;;;;15.09;100.00;103026.03;5008569;28;20029;-70
2023/10/29 03:20:41;;;;;;;14.10;4.50;;;;;;;15.36;100.00;103120.06;5021242;28;20036;-70
2023/10/29 03:23:06;;;;;;;10.18;4.50;;;;;;;15.52;100.00;103162.91;5024625;28;20056;-71
2023/10/29 03:25:32;;;;;;;9.43;4.22;;;;;;;14.99;100.00;103111.41;5010127;28;20045;-70
2023/10/29 03:27:57;;;;;;;10.20;4.78;;;;;;;14.79;100.00;103256.47;5017657;28;20033;-70
2023/10/29 03:30:23;;;;;;;12.70;4.40;;;;;;;15.05;100.00;103354.94;5018496;28;20030;-71
2023/10/29 03:32:48;;;;;;;12.23;5.18;;;;;;;14.84;100.00;103398.28;5017959;28;20455;-70
2023/10/29 03:35:14;;;;;;;15.93;6.72;;;;;;;14.63;100.00;103400.63;5022200;28;20026;-71
2023/10/29 03:37:39;;;;;;;16.63;6.50;;;;;;;14.75;100.00;103457.13;5009401;28;20084;-70
2023/10/29 03:40:06;;;;;;;12.02;6.30;;;;;;;14.95;100.00;103535.09;5017172;28;20582;-69
2023/10/29 03:42:32;;;;;;;11.45;6.07;;;;;;;14.66;100.00;103556.91;5021313;28;20040;-69
2023/10/29 03:44:58;;;;;;;12.23;5.97;;;;;;;14.65;100.00;103604.75;5016230;28;20571;-69
2023/10/29 03:47:24;;;;;;;14.80;6.03;;;;;;;14.68;100.00;103642.31;5016614;28;20029;-69
2023/10/29 03:49:49;;;;;;;19.40;6.18;;;;;;;13.99;100.00;103552.50;5009111;28;20027;-70
2023/10/29 03:52:15;;;;;;;10.15;5.40;;;;;;;14.47;100.00;103645.44;5014181;28;20075;-69
2023/10/29 03:54:40;;;;;;;13.95;6.18;;;;;;;14.49;100.00;103656.59;5024265;28;20431;-69
2023/10/29 03:57:07;;;;;;;17.83;10.18;;;;;;;14.44;100.00;103680.41;5021460;28;20115;-69
2023/10/29 03:59:34;;;;;;;14.07;8.45;;;;;;;14.68;100.00;103731.97;5019666;28;20040;-69
2023/10/29 04:01:59;;;;;;;15.52;9.32;;;;;;;14.80;100.00;103732.19;5013325;28;20061;-69
2023/10/29 04:04:25;;;;;;;21.55;9.57;;;;;;;14.54;100.00;103698.47;5022985;28;20060;-69
2023/10/29 04:06:50;;;;;;;16.95;10.00;;;;;;;14.16;100.00;103648.34;5017402;28;20407;-71
2023/10/29 04:09:16;;;;;;;13.95;8.52;;;;;;;14.50;100.00;103722.31;5020356;28;20510;-70
2023/10/29 04:11:42;;;;;;;12.32;8.30;;;;;;;14.34;100.00;103715.22;5020893;28;20061;-70
2023/10/29 04:14:07;;;;;;;14.80;8.40;;;;;;;14.66;100.00;103759.28;5020463;28;20084;-69
2023/10/29 04:16:33;;;;;;;15.45;8.50;;;;;;;14.27;100.00;103715.06;5021315;28;20029;-70
2023/10/29 04:18:58;;;;;;;15.40;8.40;;;;;;;14.62;100.00;103783.13;5017714;28;20466;-70
2023/10/29 04:21:24;;;;;;;15.00;8.15;;;;;;;14.00;100.00;103717.13;5017243;28;20445;-70
2023/10/29 04:23:50;;;;;;;17.42;8.55;;;;;;;14.61;100.00;103832.63;5021272;28;20048;-71
2023/10/29 04:26:15;;;;;;;13.70;8.38;;;;;;;14.03;100.00;103746.19;5021479;28;20080;-71
2023/10/29 04:28:41;;;;;;;14.38;8.10;;;;;;;14.44;100.00;103855.38;5008139;28;20037;-70
2023/10/29 04:31:06;;;;;;;16.05;7.57;;;;;;;14.41;100.00;103857.03;5008192;28;20456;-74
2023/10/29 04:33:32;;;;;;;19.73;7.85;;;;;;;14.51;100.00;103907.59;5016597;28;20045;-72
2023/10/29 04:35:58;;;;;;;12.85;7.35;;;;;;;14.03;100.00;103845.13;5008634;28;20061;-72
2023/10/29 04:38:23;;;;;;;18.42;7.60;;;;;;;13.91;100.00;103859.41;5008172;28;20033;-73
2023/10/29 04:40:50;;;;;;;17.58;7.57;;;;;;;14.29;100.00;103883.25;5016511;28;20511;-71
2023/10/29 04:43:16;;;;;;;16.42;7.88;;;;;;;14.31;100.00;103926.81;5016957;28;20040;-71
2023/10/29 04:45:41;;;;;;;13.73;7.45;;;;;;;14.24;100.00;103897.63;5020483;28;20029;-71
2023/10/29 04:48:07;;;;;;;17.27;7.72;;;;;;;14.37;100.00;103898.75;5025380;28;20566;-71
2023/10/29 04:50:32;;;;;;;15.07;7.15;;;;;;;14.40;100.00;103876.63;5020434;28;20064;-71
2023/10/29 04:52:58;;;;;;;12.85;6.95;;;;;;;14.49;100.00;103919.50;5004924;28;20040;-72
2023/10/29 04:55:24;;;;;;;13.60;7.78;;;;;;;14.11;100.00;103876.88;5017790;28;20025;-72
2023/10/29 04:57:49;;;;;;;16.23;8.18;;;;;;;13.97;100.00;103881.69;5008395;28;20480;-73
2023/10/29 05:00:15;;;;;;;20.35;9.50;;;;;;;13.73;100.00;103838.56;5009693;28;20120;-72
2023/10/29 05:02:40;;;;;;;15.23;8.57;;;;;;;14.39;100.00;103932.94;5021089;28;20076;-71
2023/10/29 05:05:10;;;;;;;16.98;8.02;;;;;;;14.39;100.00;103927.81;5006026;28;20472;-71
2023/10/29 05:07:36;;;;;;;15.18;7.85;;;;;;;14.28;100.00;103925.03;5014488;28;20061;-71
2023/10/29 05:10:02;;;;;;;14.68;6.80;;;;;;;14.09;100.00;103919.47;5012529;28;20032;-71
2023/10/29 05:12:28;;;;;;;12.00;6.07;;;;;;;13.87;100.00;103898.56;5022345;28;20032;-71
2023/10/29 05:14:53;;;;;;;12.45;6.10;;;;;;;13.64;100.00;103855.41;5014806;28;20029;-72
2023/10/29 05:17:19;;;;;;;12.52;5.47;;;;;;;14.09;100.00;103899.00;5016274;28;20033;-72
2023/10/29 05:19:44;;;;;;;14.25;5.78;;;;;;;14.21;100.00;103924.84;5012311;28;20048;-73
2023/10/29 05:22:10;;;;;;;10.88;5.68;;;;;;;14.30;100.00;103937.91;5018587;28;20048;-72
2023/10/29 05:24:36;;;;;;;16.30;5.97;;;;;;;13.96;100.00;103885.09;5006824;28;20103;-72
2023/10/29 05:27:01;;;;;;;12.65;5.88;;;;;;;14.98;100.00;104008.41;5004914;28;20029;-72
2023/10/29 05:29:30;;;;;;;9.63;5.15;;;;;;;14.21;100.00;103940.22;5015592;28;20029;-72
2023/10/29 05:31:56;;;;;;;13.23;5.60;;;;;;;14.74;100.00;103972.91;5019739;28;20037;-71
2023/10/29 05:34:21;;;;;;;15.38;6.10;;;;;;;17.63;100.00;104364.78;5005995;28;20029;-71
2023/10/29 05:36:47;;;;;;;9.15;5.20;;;;;;;15.51;100.00;104070.13;5005266;28;23900;-72
2023/10/29 05:39:14;;;;;;;12.00;5.70;;;;;;;14.32;100.00;103841.50;5007379;28;20088;-71
2023/10/29 05:41:40;;;;;;;11.40;5.28;;;;;;;17.00;100.00;104032.91;5012261;28;20097;-71
2023/10/29 05:44:05;;;;;;;12.48;5.82;;;;;;;19.57;100.00;103874.31;4999884;28;20580;-72
2023/10/29 05:46:31;;;;;;;11.38;5.38;;;;;;;19.23;100.00;103225.72;5003104;28;20049;-71
2023/10/29 05:48:56;;;;;;;11.15;5.22;;;;;;;19.34;100.00;102934.84;5005600;28;20092;-71
2023/10/29 05:51:21;;;;;;;12.38;5.28;;;;;;;20.45;100.00;102665.59;5012610;28;20041;-71
2023/10/29 05:53:47;;;;;;;13.23;5.40;;;;;;;20.79;100.00;102339.66;5016435;28;20450;-71
2023/10/29 05:56:13;;;;;;;14.00;5.40;;;;;;;20.28;100.00;102096.63;5017805;28;20030;-71
2023/10/29 05:58:38;;;;;;;12.05;5.43;;;;;;;18.10;100.00;101854.97;5015367;28;20041;-69
2023/10/29 06:01:04;;;;;;;11.43;4.78;;;;;;;15.52;100.00;101842.25;5016085;28;20408;-71
2023/10/29 06:03:30;;;;;;;12.77;5.50;;;;;;;14.91;100.00;101961.94;5016420;28;20112;-68
2023/10/29 06:05:56;;;;;;;11.98;5.40;;;;;;;14.97;100.00;102106.19;5017512;28;20112;-68
2023/10/29 06:08:21;;;;;;;14.93;5.55;;;;;;;15.57;100.00;102317.38;5014767;28;20049;-69
2023/10/29 06:10:47;;;;;;;8.90;4.65;;;;;;;15.62;100.00;102451.56;5014982;28;20080;-69
2023/10/29 06:13:13;;;;;;;13.90;5.30;;;;;;;15.57;100.00;102556.75;5003882;28;20065;-68
2023/10/29 06:15:39;;;;;;;12.80;5.07;;;;;;;15.69;100.00;102657.59;5020828;28;20389;-71
2023/10/29 06:18:06;;;;;;;11.60;4.88;;;;;;;15.38;100.00;102669.66;5016109;28;20498;-69
2023/10/29 06:20:31;;;;;;;14.35;5.00;;;;;;;16.22;100.00;102830.09;5009577;28;20033;-69
2023/10/29 06:22:57;;;;;;;11.05;4.80;;;;;;;15.83;100.00;102795.16;4996631;28;20065;-69
2023/10/29 06:25:22;;;;;;;13.30;4.93;;;;;;;16.09;100.00;102854.09;5014478;28;20091;-69
2023/10/29 06:27:48;;;;;;;11.48;4.68;;;;;;;16.27;100.00;102895.09;5006480;28;20408;-69
2023/10/29 06:30:14;;;;;;;10.23;4.70;;;;;;;16.54;100.00;102902.69;5017381;28;20408;-70
2023/10/29 06:32:40;;;;;;;14.73;5.40;;;;;;;16.48;100.00;102874.44;5015889;28;20104;-68
2023/10/29 06:35:06;;;;;;;11.82;4.90;;;;;;;16.85;100.00;102850.25;5003769;28;20129;-69
2023/10/29 06:37:31;;;;;;;11.60;4.88;;;;;;;17.85;100.00;102922.22;5000043;28;20029;-70
2023/10/29 06:39:57;;;;;;;10.02;4.40;;;;;;;17.63;100.00;102775.78;5011663;28;20482;-69
2023/10/29 06:42:22;;;;;;;8.75;3.60;;;;;;;17.34;100.00;102639.75;5018107;28;20038;-69
2023/10/29 06:44:47;;;;;;;12.20;3.30;;;;;;;17.59;100.00;102594.84;5018200;28;20029;-69
2023/10/29 06:47:14;;;;;;;7.55;3.17;;;;;;;17.57;100.00;102526.28;5021251;28;20411;-69
2023/10/29 06:49:40;;;;;;;9.23;3.58;;;;;;;17.35;100.00;102472.53;5008733;28;20041;-69
2023/10/29 06:52:06;;;;;;;8.60;3.50;;;;;;;17.92;100.00;102445.00;5025245;28;20029;-70
2023/10/29 06:54:32;;;;;;;8.05;3.08;;;;;;;18.04;100.00;102395.00;5022113;28;20045;-69
2023/10/29 06:56:57;;;;;;;9.98;2.97;;;;;;;18.12;100.00;102313.31;5019383;28;20030;-69
2023/10/29 06:59:23;;;;;;;6.28;2.90;;;;;;;18.50;100.00;102282.38;5021459;28;20034;-70
2023/10/29 07:01:49;;;;;;;8.30;3.03;;;;;;;18.97;100.00;102234.81;5003751;28;20057;-69
2023/10/29 07:04:15;;;;;;;5.88;2.80;;;;;;;19.44;100.00;102195.69;5017524;28;20065;-69
2023/10/29 07:06:40;;;;;;;7.47;2.83;;;;;;;19.15;100.00;102046.03;5027162;28;20029;-69
2023/10/29 07:09:06;;;;;;;6.57;2.70;;;;;;;19.36;100.00;101990.38;5010386;28;20030;-70
2023/10/29 07:11:31;;;;;;;7.05;2.80;;;;;;;18.75;100.00;101903.75;5015780;28;20033;-70
2023/10/29 07:13:57;;;;;;;8.70;2.60;;;;;;;19.78;100.00;101970.91;5016633;28;20061;-72
2023/10/29 07:16:22;;;;;;;10.77;3.13;;;;;;;19.76;100.00;101970.97;5020951;28;20440;-72
2023/10/29 07:18:47;;;;;;;10.40;3.45;;;;;;;19.44;100.00;101952.28;5019300;28;20420;-73
2023/10/29 07:21:14;;;;;;;8.20;3.45;;;;;;;19.57;100.00;101951.00;5021969;28;20112;-73
2023/10/29 07:23:42;;;;;;;7.95;3.13;;;;;;;19.58;100.00;101919.09;5017046;28;20037;-72
2023/10/29 07:26:08;;;;;;;28.40;4.88;;;;;;;20.02;100.00;101915.84;5008374;28;20484;-71
2023/10/29 07:28:34;;;;;;;20.23;4.28;;;;;;;20.24;100.00;101905.59;5016799;28;20053;-71
2023/10/29 07:31:01;;;;;;;14.98;3.60;;;;;;;20.42;100.00;101860.97;5016262;28;20034;-71
2023/10/29 07:33:27;;;;;;;13.48;3.65;;;;;;;20.36;100.00;101787.09;5013270;28;20060;-71
2023/10/29 07:35:52;;;;;;;9.77;3.63;;;;;;;20.48;100.00;101770.28;5008592;28;20033;-70
2023/10/29 07:38:18;;;;;;;11.43;3.67;;;;;;;20.95;100.00;101745.88;5023110;28;20032;-71
2023/10/29 07:40:43;;;;;;;8.98;3.90;;;;;;;20.80;100.00;101675.88;5019603;28;20087;-72
2023/10/29 07:43:09;;;;;;;12.63;4.10;;;;;;;20.72;100.00;101583.09;5008472;28;20029;-72
2023/10/29 07:45:35;;;;;;;9.88;3.60;;;;;;;20.70;100.00;101546.97;5012564;28;20034;-70
2023/10/29 07:48:00;;;;;;;11.18;3.03;;;;;;;20.96;100.00;101570.81;5008599;28;20030;-71
2023/10/29 07:50:26;;;;;;;7.68;3.20;;;;;;;20.82;100.00;101518.91;5021949;28;20032;-72
2023/10/29 07:52:51;;;;;;;8.88;3.17;;;;;;;20.74;100.00;101508.91;5012454;28;20042;-70
2023/10/29 07:55:17;;;;;;;10.82;3.15;;;;;;;21.28;100.00;101521.06;5017938;28;20040;-70
2023/10/29 07:57:42;;;;;;;8.15;3.20;;;;;;;21.52;100.00;101519.88;5014253;28;20086;-70
2023/10/29 08:00:15;;;;;;;10.75;3.13;;;;;;;21.41;100.00;101470.41;5002162;28;20130;-69
2023/10/29 08:02:42;;;;;;;8.20;2.75;;;;;;;21.59;100.00;101400.41;5015797;28;20109;-70
2023/10/29 08:05:09;;;;;;;8.32;3.03;;;;;;;21.49;100.00;101349.22;5011935;28;20057;-70
2023/10/29 08:07:34;;;;;;;6.95;2.13;;;;;;;21.75;100.00;101330.53;5016931;28;20033;-70
2023/10/29 08:10:00;;;;;;;6.53;2.20;;;;;;;21.72;100.00;101284.13;5021726;28;20043;-70
2023/10/29 08:12:28;;;;;;;8.27;2.67;;;;;;;22.01;100.00;101251.47;5006178;28;20044;-70
2023/10/29 08:14:54;;;;;;;10.30;2.47;;;;;;;21.95;100.00;101206.03;5007626;28;20037;-69
2023/10/29 08:17:20;;;;;;;7.80;2.45;;;;;;;21.94;100.00;101188.00;5006149;28;20091;-69
2023/10/29 08:19:47;;;;;;;8.43;2.13;;;;;;;21.55;100.00;101095.19;5005508;28;20542;-70
2023/10/29 08:22:13;;;;;;;7.32;2.13;;;;;;;21.51;100.00;101080.75;5006495;28;20108;-70
2023/10/29 08:24:39;;;;;;;7.65;2.40;;;;;;;21.74;100.00;101062.19;5008101;28;20042;-70
2023/10/29 08:27:06;;;;;;;6.18;1.90;;;;;;;22.15;100.00;101078.78;5007608;28;20030;-70
2023/10/29 08:29:35;;;;;;;5.55;2.30;;;;;;;22.47;100.00;101061.34;5006868;28;20092;-70
2023/10/29 08:32:01;;;;;;;6.65;1.80;;;;;;;21.90;100.00;100977.53;5005881;28;20110;-70
2023/10/29 08:34:27;;;;;;;6.45;1.75;;;;;;;22.62;100.00;101005.19;5004801;28;20022;-70
2023/10/29 08:36:53;;;;;;;5.75;1.88;;;;;;;21.47;100.00;100900.69;5007630;28;20160;-70
2023/10/29 08:39:21;;;;;;;5.93;1.98;;;;;;;22.43;100.00;100949.25;5007344;28;20099;-70
2023/10/29 08:41:47;;;;;;;3.75;1.70;;;;;;;22.70;100.00;100953.69;5007428;28;20113;-70
2023/10/29 08:44:12;;;;;;;7.05;1.67;;;;;;;22.18;100.00;100932.69;5007086;28;20488;-70
2023/10/29 08:46:37;;;;;;;6.47;1.58;;;;;;;22.51;100.00;100938.38;5006629;28;20461;-70
2023/10/29 08:49:03;;;;;;;5.90;1.88;;;;;;;23.07;100.00;100920.13;5004612;28;20034;-70
2023/10/29 08:51:28;;;;;;;7.90;2.03;;;;;;;22.87;100.00;100933.53;5005362;28;20026;-70
2023/10/29 08:53:54;;;;;;;7.05;2.13;;;;;;;23.36;100.00;100917.41;5005509;28;20046;-70
2023/10/29 08:56:19;;;;;;;5.60;1.90;;;;;;;23.57;100.00;100901.22;5004116;28;20591;-69
2023/10/29 08:58:45;;;;;;;4.97;1.80;;;;;;;22.99;100.00;100861.88;4997684;28;20049;-69
2023/10/29 09:01:12;;;;;;;5.35;1.80;;;;;;;22.97;100.00;100868.91;5006574;28;20172;-70
2023/10/29 09:03:37;;;;;;;4.78;1.58;;;;;;;23.46;100.00;100843.16;5005735;28;20061;-70
2023/10/29 09:06:03;;;;;;;7.72;3.22;;;;;;;23.63;100.00;100835.09;5006086;28;20057;-70
2023/10/29 09:08:31;;;;;;;7.00;2.40;;;;;;;23.69;100.00;100800.91;5006677;28;20033;-70
2023/10/29 09:10:57;;;;;;;5.22;2.30;;;;;;;23.99;100.00;100835.97;5000326;28;20037;-69
2023/10/29 09:13:23;;;;;;;5.65;1.90;;;;;;;23.53;100.00;100832.25;5010278;28;20132;-69
2023/10/29 09:15:49;;;;;;;5.57;2.00;;;;;;;23.13;100.00;100784.78;4996571;28;20030;-70
2023/10/29 09:18:16;;;;;;;5.03;1.92;;;;;;;23.77;100.00;100820.19;5018200;28;20530;-71
2023/10/29 09:20:46;;;;;;;5.53;1.90;;;;;;;23.42;100.00;100807.97;5014659;28;20087;-69
2023/10/29 09:23:11;;;;;;;5.88;1.80;;;;;;;23.67;100.00;100813.97;4997377;28;20131;-69
2023/10/29 09:25:37;;;;;;;4.38;2.00;;;;;;;23.83;100.00;100772.16;5010638;28;20026;-69
2023/10/29 09:28:05;;;;;;;6.15;2.38;;;;;;;24.47;100.00;100816.09;5002447;28;20052;-69
2023/10/29 09:30:31;;;;;;;7.35;2.45;;;;;;;24.64;100.00;100823.50;5004414;28;20124;-70
2023/10/29 09:32:56;;;;;;;9.45;2.05;;;;;;;24.25;100.00;100773.53;5008327;28;20132;-70
2023/10/29 09:35:22;;;;;;;5.13;1.75;;;;;;;24.24;100.00;100816.09;5017827;28;20034;-70
2023/10/29 09:37:47;;;;;;;4.80;1.90;;;;;;;24.32;100.00;100798.16;5013726;28;20041;-70
2023/10/29 09:40:15;;;;;;;5.13;1.75;;;;;;;24.66;100.00;100800.81;5017824;28;20033;-70
2023/10/29 09:42:53;;;;;;;5.20;2.17;;;;;;;24.53;100.00;100752.41;5018028;28;20037;-70
2023/10/29 09:45:23;;;;;;;4.18;1.58;;;;;;;;;;5008387;28;20396;-70
2023/10/29 09:47:49;;;;;;;6.97;1.65;;;;;;;24.70;100.00;100739.81;5017045;28;20029;-69
2023/10/29 09:50:15;;;;;;;4.63;1.45;;;;;;;24.92;100.00;100762.47;5008421;28;20120;-71
2023/10/29 09:52:41;;;;;;;5.75;1.73;;;;;;;24.44;100.00;100740.91;5014971;28;20030;-70
2023/10/29 09:55:08;;;;;;;4.15;1.50;;;;;;;25.17;100.00;100801.38;5016113;28;20030;-70
2023/10/29 09:57:34;;;;;;;3.63;1.17;;;;;;;25.21;100.00;100801.97;5013526;28;20064;-70
2023/10/29 10:00:00;;;;;;;3.25;1.25;;;;;;;;;;5019342;28;20038;-71
2023/10/29 10:02:26;;;;;;;6.22;1.58;;;;;;;24.85;100.00;100735.28;5017362;28;20417;-71
2023/10/29 10:04:51;;;;;;;3.72;1.10;;;;;;;25.44;100.00;100803.66;5014770;28;20030;-70
2023/10/29 10:07:17;;;;;;;3.65;1.17;;;;;;;25.41;100.00;100809.13;5018771;28;20087;-70
2023/10/29 10:09:55;;;;;;;5.43;1.40;;;;;;;25.33;100.00;100812.28;5016151;28;20037;-70
2023/10/29 10:12:21;;;;;;;2.30;0.90;;;;;;;24.84;100.00;100780.44;5015745;28;20167;-69
2023/10/29 10:14:48;;;;;;;4.63;1.38;;;;;;;24.78;100.00;100754.91;5014579;28;20053;-70
2023/10/29 10:17:14;;;;;;;4.53;1.27;;;;;;;24.74;100.00;100834.94;5009233;28;20033;-70
2023/10/29 10:19:40;;;;;;;4.43;1.10;;;;;;;24.90;100.00;100806.84;5027562;28;20108;-70
2023/10/29 10:22:06;;;;;;;3.78;1.00;;;;;;;25.19;100.00;100814.25;5023139;28;20029;-70
2023/10/29 10:24:43;;;;;;;2.38;0.98;;;;;;;24.60;100.00;100730.22;5020872;28;20619;-70
2023/10/29 10:27:09;;;;;;;2.85;0.90;;;;;;;25.26;100.00;100818.03;5011293;28;20060;-70
2023/10/29 10:29:35;;;;;;;2.30;0.85;;;;;;;25.61;100.00;100827.47;5021244;28;20488;-71
2023/10/29 10:32:02;;;;;;;2.20;0.98;;;;;;;25.33;100.00;100838.31;5018625;28;20160;-70
2023/10/29 10:34:30;;;;;;;3.05;1.10;;;;;;;25.23;100.00;100841.72;5021362;28;20025;-71
2023/10/29 10:37:00;;;;;;;4.93;1.30;;;;;;;24.71;100.00;100837.72;5024386;28;20034;-74
2023/10/29 10:39:31;;;;;;;3.63;0.90;;;;;;;24.97;100.00;100854.06;5018785;28;20026;-74
2023/10/29 10:41:58;;;;;;;4.95;1.00;;;;;;;25.29;100.00;100789.19;5020167;28;20034;-75
2023/10/29 10:44:26;;;;;;;3.45;1.00;;;;;;;25.44;100.00;100808.88;5011567;28;20492;-70
2023/10/29 10:46:54;;;;;;;3.42;0.77;;;;;;;25.28;100.00;100845.63;5016633;28;20025;-71
2023/10/29 10:49:21;;;;;;;3.72;1.10;;;;;;;25.05;100.00;100838.72;5025514;28;20030;-72
2023/10/29 10:51:48;;;;;;;5.45;1.20;;;;;;;25.41;100.00;100815.16;5023619;28;20034;-69
2023/10/29 10:54:20;;;;;;;3.42;1.20;;;;;;;25.27;100.00;100825.78;5007519;28;20061;-71
2023/10/29 10:56:46;;;;;;;;;;;;;;;25.53;100.00;100849.88;5019533;28;20021;-71
2023/10/29 10:59:11;;;;;;;6.95;1.20;;;;;;;25.42;100.00;100847.22;5015548;28;20311;-71
2023/10/29 11:01:39;;;;;;;4.15;1.30;;;;;;;25.69;100.00;100845.16;5017099;28;20504;-71
2023/10/29 11:04:08;;;;;;;4.07;1.05;;;;;;;25.58;100.00;100832.94;5010517;28;20040;-70
2023/10/29 11:06:36;;;;;;;4.47;0.95;;;;;;;25.25;100.00;100832.88;5021470;28;20034;-71
2023/10/29 11:09:02;;;;;;;4.65;1.25;;;;;;;24.91;100.00;100857.13;5013828;28;20436;-71